sensor_id;sensor_type;location;lat;lon;timestamp;temperature;humidity
31309;DHT22;17936;52.446;10.840;2022-10-03T00:01:10;10.30;99.90
31309;DHT22;17936;52.446;10.840;2022-10-03T00:07:17;10.20;99.90
31309;DHT22;17936;52.446;10.840;2022-10-03T00:10:00;10.30;99.90
31309;DHT22;17936;52.446;10.840;2022-10-03T00:13:06;10.40;99.90
31309;DHT22;17936;52.446;10.840;2022-10-03T00:15:53;10.30;99.90
31309;DHT22;17936;52.446;10.840;2022-10-03T00:18:46;10.30;99.90
31309;DHT22;17936;52.446;10.840;2022-10-03T00:21:21;10.30;99.90
31309;DHT22;17936;52.446;10.840;2022-10-03T00:24:10;10.30;99.90
31309;DHT22;17936;52.446;10.840;2022-10-03T00:27:05;10.30;99.90
31309;DHT22;17936;52.446;10.840;2022-10-03T00:42:14;10.50;99.90
31309;DHT22;17936;52.446;10.840;2022-10-03T00:50:37;10.60;99.90
31309;DHT22;17936;52.446;10.840;2022-10-03T00:53:14;10.60;99.90
31309;DHT22;17936;52.446;10.840;2022-10-03T01:07:04;10.70;99.90
31309;DHT22;17936;52.446;10.840;2022-10-03T01:12:52;10.50;99.90
31309;DHT22;17936;52.446;10.840;2022-10-03T01:18:28;10.40;99.90
31309;DHT22;17936;52.446;10.840;2022-10-03T01:21:53;10.40;99.90
31309;DHT22;17936;52.446;10.840;2022-10-03T01:26:52;10.40;99.90
31309;DHT22;17936;52.446;10.840;2022-10-03T01:29:25;10.40;99.90
31309;DHT22;17936;52.446;10.840;2022-10-03T01:32:25;10.40;99.90
31309;DHT22;17936;52.446;10.840;2022-10-03T01:37:57;10.40;99.90
31309;DHT22;17936;52.446;10.840;2022-10-03T01:40:35;10.40;99.90
31309;DHT22;17936;52.446;10.840;2022-10-03T01:43:17;10.30;99.90
31309;DHT22;17936;52.446;10.840;2022-10-03T01:46:05;10.40;99.90
31309;DHT22;17936;52.446;10.840;2022-10-03T01:54:10;10.40;99.90
31309;DHT22;17936;52.446;10.840;2022-10-03T01:56:59;10.40;99.90
31309;DHT22;17936;52.446;10.840;2022-10-03T01:59:52;10.40;99.90
31309;DHT22;17936;52.446;10.840;2022-10-03T02:02:27;10.40;99.90
31309;DHT22;17936;52.446;10.840;2022-10-03T02:05:04;10.40;99.90
31309;DHT22;17936;52.446;10.840;2022-10-03T02:10:31;10.30;99.90
31309;DHT22;17936;52.446;10.840;2022-10-03T02:13:24;10.30;99.90
31309;DHT22;17936;52.446;10.840;2022-10-03T02:16:09;10.30;99.90
31309;DHT22;17936;52.446;10.840;2022-10-03T02:21:20;10.30;99.90
31309;DHT22;17936;52.446;10.840;2022-10-03T02:23:48;10.20;99.90
31309;DHT22;17936;52.446;10.840;2022-10-03T02:28:58;10.10;99.90
31309;DHT22;17936;52.446;10.840;2022-10-03T02:32:00;10.10;99.90
31309;DHT22;17936;52.446;10.840;2022-10-03T02:35:00;10.20;99.90
31309;DHT22;17936;52.446;10.840;2022-10-03T02:37:48;10.10;99.90
31309;DHT22;17936;52.446;10.840;2022-10-03T02:43:17;10.00;99.90
31309;DHT22;17936;52.446;10.840;2022-10-03T02:46:08;10.00;99.90
31309;DHT22;17936;52.446;10.840;2022-10-03T02:54:52;10.00;99.90
31309;DHT22;17936;52.446;10.840;2022-10-03T02:57:59;10.00;99.90
31309;DHT22;17936;52.446;10.840;2022-10-03T03:03:30;10.00;99.90
31309;DHT22;17936;52.446;10.840;2022-10-03T03:09:06;10.00;99.90
31309;DHT22;17936;52.446;10.840;2022-10-03T03:23:17;10.00;99.90
31309;DHT22;17936;52.446;10.840;2022-10-03T03:29:02;10.00;99.90
31309;DHT22;17936;52.446;10.840;2022-10-03T03:37:29;9.90;99.90
31309;DHT22;17936;52.446;10.840;2022-10-03T03:40:15;9.90;99.90
31309;DHT22;17936;52.446;10.840;2022-10-03T03:43:16;9.90;99.90
31309;DHT22;17936;52.446;10.840;2022-10-03T03:46:13;9.80;99.90
31309;DHT22;17936;52.446;10.840;2022-10-03T03:49:04;9.80;99.90
31309;DHT22;17936;52.446;10.840;2022-10-03T03:52:17;9.80;99.90
31309;DHT22;17936;52.446;10.840;2022-10-03T03:57:51;9.70;99.90
31309;DHT22;17936;52.446;10.840;2022-10-03T04:00:47;9.60;99.90
31309;DHT22;17936;52.446;10.840;2022-10-03T04:08:46;9.60;99.90
31309;DHT22;17936;52.446;10.840;2022-10-03T04:14:46;9.60;99.90
31309;DHT22;17936;52.446;10.840;2022-10-03T04:17:31;9.60;99.90
31309;DHT22;17936;52.446;10.840;2022-10-03T04:29:25;9.50;99.90
31309;DHT22;17936;52.446;10.840;2022-10-03T04:32:17;9.60;99.90
31309;DHT22;17936;52.446;10.840;2022-10-03T04:34:57;9.50;99.90
31309;DHT22;17936;52.446;10.840;2022-10-03T04:37:46;9.60;99.90
31309;DHT22;17936;52.446;10.840;2022-10-03T04:43:34;9.60;99.90
31309;DHT22;17936;52.446;10.840;2022-10-03T04:46:26;9.60;99.90
31309;DHT22;17936;52.446;10.840;2022-10-03T04:49:17;9.60;99.90
31309;DHT22;17936;52.446;10.840;2022-10-03T04:55:29;9.70;99.90
31309;DHT22;17936;52.446;10.840;2022-10-03T04:58:27;9.80;99.90
31309;DHT22;17936;52.446;10.840;2022-10-03T05:03:47;9.80;99.90
31309;DHT22;17936;52.446;10.840;2022-10-03T05:06:36;9.80;99.90
31309;DHT22;17936;52.446;10.840;2022-10-03T05:17:43;9.70;99.90
31309;DHT22;17936;52.446;10.840;2022-10-03T05:23:16;9.70;99.90
31309;DHT22;17936;52.446;10.840;2022-10-03T05:25:53;9.70;99.90
31309;DHT22;17936;52.446;10.840;2022-10-03T05:31:51;9.70;99.90
31309;DHT22;17936;52.446;10.840;2022-10-03T05:37:57;9.60;99.90
31309;DHT22;17936;52.446;10.840;2022-10-03T05:40:28;9.50;99.90
31309;DHT22;17936;52.446;10.840;2022-10-03T05:43:02;9.50;99.90
31309;DHT22;17936;52.446;10.840;2022-10-03T05:48:49;9.50;99.90
31309;DHT22;17936;52.446;10.840;2022-10-03T05:51:41;9.40;99.90
31309;DHT22;17936;52.446;10.840;2022-10-03T05:54:42;9.40;99.90
31309;DHT22;17936;52.446;10.840;2022-10-03T05:57:28;9.50;99.90
31309;DHT22;17936;52.446;10.840;2022-10-03T06:00:21;9.50;99.90
31309;DHT22;17936;52.446;10.840;2022-10-03T06:08:51;9.60;99.90
31309;DHT22;17936;52.446;10.840;2022-10-03T06:17:41;9.80;99.90
31309;DHT22;17936;52.446;10.840;2022-10-03T06:23:29;9.80;99.90
31309;DHT22;17936;52.446;10.840;2022-10-03T06:26:26;9.80;99.90
31309;DHT22;17936;52.446;10.840;2022-10-03T06:32:13;9.90;99.90
31309;DHT22;17936;52.446;10.840;2022-10-03T06:37:45;10.00;99.90
31309;DHT22;17936;52.446;10.840;2022-10-03T06:40:34;10.00;99.90
31309;DHT22;17936;52.446;10.840;2022-10-03T06:46:30;10.10;99.90
31309;DHT22;17936;52.446;10.840;2022-10-03T06:57:23;10.40;99.90
31309;DHT22;17936;52.446;10.840;2022-10-03T07:00:12;10.50;99.90
31309;DHT22;17936;52.446;10.840;2022-10-03T07:03:11;10.70;99.90
31309;DHT22;17936;52.446;10.840;2022-10-03T07:06:11;10.70;99.90
31309;DHT22;17936;52.446;10.840;2022-10-03T07:09:07;10.70;99.90
31309;DHT22;17936;52.446;10.840;2022-10-03T07:17:17;11.20;99.90
31309;DHT22;17936;52.446;10.840;2022-10-03T07:19:51;11.20;99.90
31309;DHT22;17936;52.446;10.840;2022-10-03T07:31:02;11.70;99.90
31309;DHT22;17936;52.446;10.840;2022-10-03T07:34:05;11.90;99.90
31309;DHT22;17936;52.446;10.840;2022-10-03T07:39:54;12.20;99.90
31309;DHT22;17936;52.446;10.840;2022-10-03T07:42:59;12.10;99.90
31309;DHT22;17936;52.446;10.840;2022-10-03T07:55:46;13.00;99.90
31309;DHT22;17936;52.446;10.840;2022-10-03T07:58:24;12.90;99.90
31309;DHT22;17936;52.446;10.840;2022-10-03T08:01:10;13.00;99.90
31309;DHT22;17936;52.446;10.840;2022-10-03T08:04:08;13.20;99.90
31309;DHT22;17936;52.446;10.840;2022-10-03T08:06:41;13.50;99.90
31309;DHT22;17936;52.446;10.840;2022-10-03T08:09:46;13.30;99.90
31309;DHT22;17936;52.446;10.840;2022-10-03T08:15:22;14.00;99.90
31309;DHT22;17936;52.446;10.840;2022-10-03T08:18:03;13.70;99.90
31309;DHT22;17936;52.446;10.840;2022-10-03T08:20:47;13.80;99.90
31309;DHT22;17936;52.446;10.840;2022-10-03T08:26:03;13.90;99.90
31309;DHT22;17936;52.446;10.840;2022-10-03T08:28:59;14.20;99.90
31309;DHT22;17936;52.446;10.840;2022-10-03T08:37:19;14.30;99.90
31309;DHT22;17936;52.446;10.840;2022-10-03T08:42:50;14.70;99.90
31309;DHT22;17936;52.446;10.840;2022-10-03T08:51:29;14.50;99.90
31309;DHT22;17936;52.446;10.840;2022-10-03T08:54:18;14.90;99.90
31309;DHT22;17936;52.446;10.840;2022-10-03T09:00:14;15.20;99.90
31309;DHT22;17936;52.446;10.840;2022-10-03T09:11:44;15.50;99.90
31309;DHT22;17936;52.446;10.840;2022-10-03T09:14:30;15.60;99.90
31309;DHT22;17936;52.446;10.840;2022-10-03T09:30:58;16.70;99.90
31309;DHT22;17936;52.446;10.840;2022-10-03T09:34:11;15.90;99.90
31309;DHT22;17936;52.446;10.840;2022-10-03T09:37:23;15.50;99.90
31309;DHT22;17936;52.446;10.840;2022-10-03T09:43:53;15.10;99.90
31309;DHT22;17936;52.446;10.840;2022-10-03T09:46:28;14.90;99.90
31309;DHT22;17936;52.446;10.840;2022-10-03T09:58:06;14.70;99.90
31309;DHT22;17936;52.446;10.840;2022-10-03T10:04:19;14.70;99.90
31309;DHT22;17936;52.446;10.840;2022-10-03T10:07:17;14.50;99.90
31309;DHT22;17936;52.446;10.840;2022-10-03T10:13:15;14.40;99.90
31309;DHT22;17936;52.446;10.840;2022-10-03T10:16:05;14.50;99.90
31309;DHT22;17936;52.446;10.840;2022-10-03T10:27:23;15.20;99.90
31309;DHT22;17936;52.446;10.840;2022-10-03T10:33:32;15.00;99.90
31309;DHT22;17936;52.446;10.840;2022-10-03T10:54:47;16.20;99.90
31309;DHT22;17936;52.446;10.840;2022-10-03T11:00:21;16.20;99.90
31309;DHT22;17936;52.446;10.840;2022-10-03T11:05:39;16.90;99.90
31309;DHT22;17936;52.446;10.840;2022-10-03T11:17:38;16.00;99.90
31309;DHT22;17936;52.446;10.840;2022-10-03T11:20:19;16.50;99.90
31309;DHT22;17936;52.446;10.840;2022-10-03T11:26:02;16.60;99.90
31309;DHT22;17936;52.446;10.840;2022-10-03T11:32:14;16.50;99.90
31309;DHT22;17936;52.446;10.840;2022-10-03T11:40:42;16.70;99.90
31309;DHT22;17936;52.446;10.840;2022-10-03T11:52:15;15.80;99.90
31309;DHT22;17936;52.446;10.840;2022-10-03T11:55:01;15.70;99.90
31309;DHT22;17936;52.446;10.840;2022-10-03T11:57:37;15.40;99.90
31309;DHT22;17936;52.446;10.840;2022-10-03T12:06:36;15.30;99.90
31309;DHT22;17936;52.446;10.840;2022-10-03T12:09:19;15.30;99.90
31309;DHT22;17936;52.446;10.840;2022-10-03T12:12:05;15.40;99.90
31309;DHT22;17936;52.446;10.840;2022-10-03T12:14:41;15.50;99.90
31309;DHT22;17936;52.446;10.840;2022-10-03T12:17:26;15.30;99.90
31309;DHT22;17936;52.446;10.840;2022-10-03T12:22:43;15.20;99.90
31309;DHT22;17936;52.446;10.840;2022-10-03T12:25:25;15.50;99.90
31309;DHT22;17936;52.446;10.840;2022-10-03T12:30:53;15.90;99.90
31309;DHT22;17936;52.446;10.840;2022-10-03T12:33:45;15.90;99.90
31309;DHT22;17936;52.446;10.840;2022-10-03T12:36:14;16.20;99.90
31309;DHT22;17936;52.446;10.840;2022-10-03T12:38:58;16.70;99.90
31309;DHT22;17936;52.446;10.840;2022-10-03T12:41:55;16.50;99.90
31309;DHT22;17936;52.446;10.840;2022-10-03T12:47:24;16.70;99.90
31309;DHT22;17936;52.446;10.840;2022-10-03T12:55:33;17.10;99.90
31309;DHT22;17936;52.446;10.840;2022-10-03T12:58:42;17.10;99.90
31309;DHT22;17936;52.446;10.840;2022-10-03T13:01:44;16.90;99.90
31309;DHT22;17936;52.446;10.840;2022-10-03T13:04:44;16.40;99.90
31309;DHT22;17936;52.446;10.840;2022-10-03T13:07:25;16.30;99.90
31309;DHT22;17936;52.446;10.840;2022-10-03T13:12:51;16.00;99.90
31309;DHT22;17936;52.446;10.840;2022-10-03T13:15:41;15.90;99.90
31309;DHT22;17936;52.446;10.840;2022-10-03T13:18:14;15.60;99.90
31309;DHT22;17936;52.446;10.840;2022-10-03T13:20:48;15.50;99.90
31309;DHT22;17936;52.446;10.840;2022-10-03T13:23:23;15.00;99.90
31309;DHT22;17936;52.446;10.840;2022-10-03T13:26:11;14.80;99.90
31309;DHT22;17936;52.446;10.840;2022-10-03T13:29:05;14.60;99.90
31309;DHT22;17936;52.446;10.840;2022-10-03T13:31:45;14.20;99.90
31309;DHT22;17936;52.446;10.840;2022-10-03T13:34:18;14.10;99.90
31309;DHT22;17936;52.446;10.840;2022-10-03T13:37:07;14.00;99.90
31309;DHT22;17936;52.446;10.840;2022-10-03T13:39:46;14.10;99.90
31309;DHT22;17936;52.446;10.840;2022-10-03T13:42:17;14.20;99.90
31309;DHT22;17936;52.446;10.840;2022-10-03T13:44:56;14.40;99.90
31309;DHT22;17936;52.446;10.840;2022-10-03T13:47:40;14.70;99.90
31309;DHT22;17936;52.446;10.840;2022-10-03T13:50:22;15.00;99.90
31309;DHT22;17936;52.446;10.840;2022-10-03T13:52:57;15.30;99.90
31309;DHT22;17936;52.446;10.840;2022-10-03T13:55:30;15.60;99.90
31309;DHT22;17936;52.446;10.840;2022-10-03T13:58:25;15.70;99.90
31309;DHT22;17936;52.446;10.840;2022-10-03T14:06:49;15.60;99.90
31309;DHT22;17936;52.446;10.840;2022-10-03T14:12:22;15.40;99.90
31309;DHT22;17936;52.446;10.840;2022-10-03T14:15:08;15.20;99.90
31309;DHT22;17936;52.446;10.840;2022-10-03T14:17:47;15.30;99.90
31309;DHT22;17936;52.446;10.840;2022-10-03T14:20:28;15.20;99.90
31309;DHT22;17936;52.446;10.840;2022-10-03T14:23:24;15.20;99.90
31309;DHT22;17936;52.446;10.840;2022-10-03T14:26:16;15.10;99.90
31309;DHT22;17936;52.446;10.840;2022-10-03T14:28:55;14.80;99.90
31309;DHT22;17936;52.446;10.840;2022-10-03T14:31:32;14.60;99.90
31309;DHT22;17936;52.446;10.840;2022-10-03T14:34:07;14.50;99.90
31309;DHT22;17936;52.446;10.840;2022-10-03T14:44:45;14.30;99.90
31309;DHT22;17936;52.446;10.840;2022-10-03T14:47:16;14.10;99.90
31309;DHT22;17936;52.446;10.840;2022-10-03T14:49:48;14.00;99.90
31309;DHT22;17936;52.446;10.840;2022-10-03T14:52:41;14.20;99.90
31309;DHT22;17936;52.446;10.840;2022-10-03T14:55:12;14.30;99.90
31309;DHT22;17936;52.446;10.840;2022-10-03T14:57:47;14.30;99.90
31309;DHT22;17936;52.446;10.840;2022-10-03T15:00:36;14.30;99.90
31309;DHT22;17936;52.446;10.840;2022-10-03T15:08:23;14.50;99.90
31309;DHT22;17936;52.446;10.840;2022-10-03T15:10:51;14.60;99.90
31309;DHT22;17936;52.446;10.840;2022-10-03T15:13:19;14.60;99.90
31309;DHT22;17936;52.446;10.840;2022-10-03T15:15:46;14.60;99.90
31309;DHT22;17936;52.446;10.840;2022-10-03T15:18:16;14.60;99.90
31309;DHT22;17936;52.446;10.840;2022-10-03T15:20:46;14.70;99.90
31309;DHT22;17936;52.446;10.840;2022-10-03T15:23:35;14.70;99.90
31309;DHT22;17936;52.446;10.840;2022-10-03T15:26:08;14.90;99.90
31309;DHT22;17936;52.446;10.840;2022-10-03T15:28:39;14.80;99.90
31309;DHT22;17936;52.446;10.840;2022-10-03T15:31:12;14.70;99.90
31309;DHT22;17936;52.446;10.840;2022-10-03T15:33:40;14.70;99.90
31309;DHT22;17936;52.446;10.840;2022-10-03T15:36:33;14.60;99.90
31309;DHT22;17936;52.446;10.840;2022-10-03T15:39:29;14.60;99.90
31309;DHT22;17936;52.446;10.840;2022-10-03T15:42:01;14.50;99.90
31309;DHT22;17936;52.446;10.840;2022-10-03T15:44:37;14.50;99.90
31309;DHT22;17936;52.446;10.840;2022-10-03T15:47:13;14.60;99.90
31309;DHT22;17936;52.446;10.840;2022-10-03T15:49:57;14.60;99.90
31309;DHT22;17936;52.446;10.840;2022-10-03T15:52:41;14.50;99.90
31309;DHT22;17936;52.446;10.840;2022-10-03T15:55:22;14.50;99.90
31309;DHT22;17936;52.446;10.840;2022-10-03T15:57:53;14.40;99.90
31309;DHT22;17936;52.446;10.840;2022-10-03T16:00:30;14.40;99.90
31309;DHT22;17936;52.446;10.840;2022-10-03T16:03:12;14.40;99.90
31309;DHT22;17936;52.446;10.840;2022-10-03T16:08:20;14.40;99.90
31309;DHT22;17936;52.446;10.840;2022-10-03T16:11:19;14.40;99.90
31309;DHT22;17936;52.446;10.840;2022-10-03T16:13:47;14.40;99.90
31309;DHT22;17936;52.446;10.840;2022-10-03T16:16:35;14.30;99.90
31309;DHT22;17936;52.446;10.840;2022-10-03T16:19:22;14.20;99.90
31309;DHT22;17936;52.446;10.840;2022-10-03T16:24:39;14.20;99.90
31309;DHT22;17936;52.446;10.840;2022-10-03T16:27:45;14.20;99.90
31309;DHT22;17936;52.446;10.840;2022-10-03T16:32:38;14.20;99.90
31309;DHT22;17936;52.446;10.840;2022-10-03T16:35:23;14.10;99.90
31309;DHT22;17936;52.446;10.840;2022-10-03T16:37:51;14.10;99.90
31309;DHT22;17936;52.446;10.840;2022-10-03T16:40:20;14.10;99.90
31309;DHT22;17936;52.446;10.840;2022-10-03T16:42:48;14.10;99.90
31309;DHT22;17936;52.446;10.840;2022-10-03T16:45:24;14.10;99.90
31309;DHT22;17936;52.446;10.840;2022-10-03T16:47:52;14.00;99.90
31309;DHT22;17936;52.446;10.840;2022-10-03T16:50:51;14.10;99.90
31309;DHT22;17936;52.446;10.840;2022-10-03T16:53:19;14.00;99.90
31309;DHT22;17936;52.446;10.840;2022-10-03T16:55:52;14.00;99.90
31309;DHT22;17936;52.446;10.840;2022-10-03T16:58:31;14.00;99.90
31309;DHT22;17936;52.446;10.840;2022-10-03T17:01:07;14.00;99.90
31309;DHT22;17936;52.446;10.840;2022-10-03T17:03:57;13.90;99.90
31309;DHT22;17936;52.446;10.840;2022-10-03T17:06:35;13.90;99.90
31309;DHT22;17936;52.446;10.840;2022-10-03T17:09:06;13.90;99.90
31309;DHT22;17936;52.446;10.840;2022-10-03T17:11:38;13.90;99.90
31309;DHT22;17936;52.446;10.840;2022-10-03T17:14:07;13.90;99.90
31309;DHT22;17936;52.446;10.840;2022-10-03T17:16:44;13.90;99.90
31309;DHT22;17936;52.446;10.840;2022-10-03T17:19:39;13.80;99.90
31309;DHT22;17936;52.446;10.840;2022-10-03T17:22:19;13.90;99.90
31309;DHT22;17936;52.446;10.840;2022-10-03T17:25:05;13.80;99.90
31309;DHT22;17936;52.446;10.840;2022-10-03T17:27:37;13.80;99.90
31309;DHT22;17936;52.446;10.840;2022-10-03T17:32:43;13.80;99.90
31309;DHT22;17936;52.446;10.840;2022-10-03T17:35:26;13.80;99.90
31309;DHT22;17936;52.446;10.840;2022-10-03T17:38:09;13.80;99.90
31309;DHT22;17936;52.446;10.840;2022-10-03T17:43:37;13.70;99.90
31309;DHT22;17936;52.446;10.840;2022-10-03T17:46:20;13.70;99.90
31309;DHT22;17936;52.446;10.840;2022-10-03T17:53:55;13.70;99.90
31309;DHT22;17936;52.446;10.840;2022-10-03T17:56:22;13.70;99.90
31309;DHT22;17936;52.446;10.840;2022-10-03T17:58:51;13.70;99.90
31309;DHT22;17936;52.446;10.840;2022-10-03T18:01:26;13.70;99.90
31309;DHT22;17936;52.446;10.840;2022-10-03T18:03:56;13.70;99.90
31309;DHT22;17936;52.446;10.840;2022-10-03T18:08:57;13.60;99.90
31309;DHT22;17936;52.446;10.840;2022-10-03T18:11:26;13.60;99.90
31309;DHT22;17936;52.446;10.840;2022-10-03T18:16:47;13.60;99.90
31309;DHT22;17936;52.446;10.840;2022-10-03T18:22:14;13.60;99.90
31309;DHT22;17936;52.446;10.840;2022-10-03T18:24:55;13.60;99.90
31309;DHT22;17936;52.446;10.840;2022-10-03T18:27:41;13.60;99.90
31309;DHT22;17936;52.446;10.840;2022-10-03T18:32:44;13.60;99.90
31309;DHT22;17936;52.446;10.840;2022-10-03T18:35:23;13.60;99.90
31309;DHT22;17936;52.446;10.840;2022-10-03T18:38:13;13.60;99.90
31309;DHT22;17936;52.446;10.840;2022-10-03T18:40:59;13.50;99.90
31309;DHT22;17936;52.446;10.840;2022-10-03T18:43:36;13.60;99.90
31309;DHT22;17936;52.446;10.840;2022-10-03T18:46:19;13.60;99.90
31309;DHT22;17936;52.446;10.840;2022-10-03T18:48:59;13.50;99.90
31309;DHT22;17936;52.446;10.840;2022-10-03T18:51:38;13.50;99.90
31309;DHT22;17936;52.446;10.840;2022-10-03T18:57:25;13.50;99.90
31309;DHT22;17936;52.446;10.840;2022-10-03T19:00:00;13.40;99.90
31309;DHT22;17936;52.446;10.840;2022-10-03T19:02:38;13.40;99.90
31309;DHT22;17936;52.446;10.840;2022-10-03T19:11:34;13.30;99.90
31309;DHT22;17936;52.446;10.840;2022-10-03T19:21:48;13.30;99.90
31309;DHT22;17936;52.446;10.840;2022-10-03T19:24:23;13.30;99.90
31309;DHT22;17936;52.446;10.840;2022-10-03T19:26:57;13.30;99.90
31309;DHT22;17936;52.446;10.840;2022-10-03T19:29:30;13.20;99.90
31309;DHT22;17936;52.446;10.840;2022-10-03T19:32:15;13.20;99.90
31309;DHT22;17936;52.446;10.840;2022-10-03T19:34:43;13.20;99.90
31309;DHT22;17936;52.446;10.840;2022-10-03T19:37:27;13.20;99.90
31309;DHT22;17936;52.446;10.840;2022-10-03T19:39:54;13.10;99.90
31309;DHT22;17936;52.446;10.840;2022-10-03T19:42:48;13.10;99.90
31309;DHT22;17936;52.446;10.840;2022-10-03T19:45:16;13.00;99.90
31309;DHT22;17936;52.446;10.840;2022-10-03T19:48:07;13.00;99.90
31309;DHT22;17936;52.446;10.840;2022-10-03T19:50:36;12.90;99.90
31309;DHT22;17936;52.446;10.840;2022-10-03T19:53:15;12.90;99.90
31309;DHT22;17936;52.446;10.840;2022-10-03T19:55:41;12.90;99.90
31309;DHT22;17936;52.446;10.840;2022-10-03T19:58:20;12.80;99.90
31309;DHT22;17936;52.446;10.840;2022-10-03T20:00:55;12.80;99.90
31309;DHT22;17936;52.446;10.840;2022-10-03T20:03:32;12.80;99.90
31309;DHT22;17936;52.446;10.840;2022-10-03T20:12:05;12.70;99.90
31309;DHT22;17936;52.446;10.840;2022-10-03T20:14:18;12.60;99.90
31309;DHT22;17936;52.446;10.840;2022-10-03T20:16:46;12.50;99.90
31309;DHT22;17936;52.446;10.840;2022-10-03T20:19:21;12.50;99.90
31309;DHT22;17936;52.446;10.840;2022-10-03T20:21:52;12.50;99.90
31309;DHT22;17936;52.446;10.840;2022-10-03T20:27:42;12.40;99.90
31309;DHT22;17936;52.446;10.840;2022-10-03T20:32:43;12.40;99.90
31309;DHT22;17936;52.446;10.840;2022-10-03T20:35:16;12.30;99.90
31309;DHT22;17936;52.446;10.840;2022-10-03T20:38:01;12.30;99.90
31309;DHT22;17936;52.446;10.840;2022-10-03T20:40:40;12.30;99.90
31309;DHT22;17936;52.446;10.840;2022-10-03T20:43:28;12.30;99.90
31309;DHT22;17936;52.446;10.840;2022-10-03T20:46:23;12.30;99.90
31309;DHT22;17936;52.446;10.840;2022-10-03T20:49:12;12.30;99.90
31309;DHT22;17936;52.446;10.840;2022-10-03T20:51:43;12.20;99.90
31309;DHT22;17936;52.446;10.840;2022-10-03T20:54:24;12.20;99.90
31309;DHT22;17936;52.446;10.840;2022-10-03T20:56:57;12.10;99.90
31309;DHT22;17936;52.446;10.840;2022-10-03T20:59:43;12.10;99.90
31309;DHT22;17936;52.446;10.840;2022-10-03T21:02:27;12.10;99.90
31309;DHT22;17936;52.446;10.840;2022-10-03T21:05:00;12.00;99.90
31309;DHT22;17936;52.446;10.840;2022-10-03T21:07:33;12.00;99.90
31309;DHT22;17936;52.446;10.840;2022-10-03T21:10:13;12.00;99.90
31309;DHT22;17936;52.446;10.840;2022-10-03T21:12:46;12.00;99.90
31309;DHT22;17936;52.446;10.840;2022-10-03T21:17:48;12.00;99.90
31309;DHT22;17936;52.446;10.840;2022-10-03T21:20:18;12.00;99.90
31309;DHT22;17936;52.446;10.840;2022-10-03T21:22:50;11.90;99.90
31309;DHT22;17936;52.446;10.840;2022-10-03T21:25:22;11.80;99.90
31309;DHT22;17936;52.446;10.840;2022-10-03T21:27:53;11.80;99.90
31309;DHT22;17936;52.446;10.840;2022-10-03T21:30:23;11.80;99.90
31309;DHT22;17936;52.446;10.840;2022-10-03T21:33:01;11.80;99.90
31309;DHT22;17936;52.446;10.840;2022-10-03T21:35:34;11.70;99.90
31309;DHT22;17936;52.446;10.840;2022-10-03T21:38:23;11.70;99.90
31309;DHT22;17936;52.446;10.840;2022-10-03T21:41:25;11.70;99.90
31309;DHT22;17936;52.446;10.840;2022-10-03T21:43:57;11.70;99.90
31309;DHT22;17936;52.446;10.840;2022-10-03T21:54:52;11.50;99.90
31309;DHT22;17936;52.446;10.840;2022-10-03T22:00:11;11.50;99.90
31309;DHT22;17936;52.446;10.840;2022-10-03T22:02:59;11.50;99.90
31309;DHT22;17936;52.446;10.840;2022-10-03T22:05:34;11.40;99.90
31309;DHT22;17936;52.446;10.840;2022-10-03T22:10:50;11.40;99.90
31309;DHT22;17936;52.446;10.840;2022-10-03T22:13:21;11.30;99.90
31309;DHT22;17936;52.446;10.840;2022-10-03T22:15:52;11.30;99.90
31309;DHT22;17936;52.446;10.840;2022-10-03T22:18:21;11.30;99.90
31309;DHT22;17936;52.446;10.840;2022-10-03T22:21:01;11.30;99.90
31309;DHT22;17936;52.446;10.840;2022-10-03T22:23:51;11.30;99.90
31309;DHT22;17936;52.446;10.840;2022-10-03T22:26:30;11.20;99.90
31309;DHT22;17936;52.446;10.840;2022-10-03T22:29:07;11.20;99.90
31309;DHT22;17936;52.446;10.840;2022-10-03T22:31:47;11.20;99.90
31309;DHT22;17936;52.446;10.840;2022-10-03T22:34:31;11.20;99.90
31309;DHT22;17936;52.446;10.840;2022-10-03T22:37:00;11.20;99.90
31309;DHT22;17936;52.446;10.840;2022-10-03T22:39:27;11.20;99.90
31309;DHT22;17936;52.446;10.840;2022-10-03T22:41:56;11.10;99.90
31309;DHT22;17936;52.446;10.840;2022-10-03T22:44:25;11.20;99.90
31309;DHT22;17936;52.446;10.840;2022-10-03T22:46:56;11.10;99.90
31309;DHT22;17936;52.446;10.840;2022-10-03T22:49:27;11.10;99.90
31309;DHT22;17936;52.446;10.840;2022-10-03T22:51:57;11.10;99.90
31309;DHT22;17936;52.446;10.840;2022-10-03T22:54:31;11.10;99.90
31309;DHT22;17936;52.446;10.840;2022-10-03T22:57:00;11.10;99.90
31309;DHT22;17936;52.446;10.840;2022-10-03T22:59:32;11.10;99.90
31309;DHT22;17936;52.446;10.840;2022-10-03T23:02:02;11.00;99.90
31309;DHT22;17936;52.446;10.840;2022-10-03T23:04:41;11.00;99.90
31309;DHT22;17936;52.446;10.840;2022-10-03T23:10:24;11.00;99.90
31309;DHT22;17936;52.446;10.840;2022-10-03T23:13:00;10.90;99.90
31309;DHT22;17936;52.446;10.840;2022-10-03T23:15:29;10.90;99.90
31309;DHT22;17936;52.446;10.840;2022-10-03T23:18:06;10.90;99.90
31309;DHT22;17936;52.446;10.840;2022-10-03T23:26:54;10.90;99.90
31309;DHT22;17936;52.446;10.840;2022-10-03T23:29:24;10.90;99.90
31309;DHT22;17936;52.446;10.840;2022-10-03T23:32:03;10.90;99.90
31309;DHT22;17936;52.446;10.840;2022-10-03T23:48:00;10.70;99.90
31309;DHT22;17936;52.446;10.840;2022-10-03T23:50:43;10.80;99.90
31309;DHT22;17936;52.446;10.840;2022-10-03T23:53:36;10.70;99.90
